Time;durP1;ratioP1;P1;durP2;ratioP2;P2;SDS_P1;SDS_P2;PMS_P1;PMS_P2;Temp;Humidity;BMP_temperature;BMP_pressure;BME280_temperature;BME280_humidity;BME280_pressure;Samples;Min_cycle;Max_cycle;Signal;HPM_P1;HPM_P2
2022/05/08 00:00:06;;;;;;;5.60;4.80;;;;;;;-128.00;-1.00;-1.00;100161;1303;1004337;-25
2022/05/08 00:02:35;;;;;;;8.30;6.00;;;;;;;-128.00;-1.00;-1.00;100079;1303;1004959;-28
2022/05/08 00:05:05;;;;;;;9.80;5.80;;;;;;;-128.00;-1.00;-1.00;100109;1303;1003089;-28
2022/05/08 00:07:34;;;;;;;12.80;6.20;;;;;;;-128.00;-1.00;-1.00;100043;1303;1003471;-27
2022/05/08 00:10:03;;;;;;;8.20;4.90;;;;;;;-128.00;-1.00;-1.00;100099;1303;1002932;-30
2022/05/08 00:12:32;;;;;;;5.80;5.00;;;;;;;-128.00;-1.00;-1.00;100069;1303;1003953;-28
2022/05/08 00:15:02;;;;;;;8.70;5.90;;;;;;;-128.00;-1.00;-1.00;100042;1303;1003700;-25
2022/05/08 00:17:34;;;;;;;6.10;4.80;;;;;;;-128.00;-1.00;-1.00;100051;1303;1003985;-28
2022/05/08 00:20:04;;;;;;;7.60;5.40;;;;;;;-128.00;-1.00;-1.00;100010;1303;1002738;-28
2022/05/08 00:22:33;;;;;;;7.20;5.10;;;;;;;-128.00;-1.00;-1.00;100079;1303;1003180;-28
2022/05/08 00:25:03;;;;;;;10.70;6.10;;;;;;;-128.00;-1.00;-1.00;100136;1303;1002863;-28
2022/05/08 00:27:32;;;;;;;12.20;6.30;;;;;;;-128.00;-1.00;-1.00;100033;1303;1003634;-28
2022/05/08 00:30:02;;;;;;;7.30;6.30;;;;;;;-128.00;-1.00;-1.00;100115;1303;1003634;-28
2022/05/08 00:32:31;;;;;;;7.50;6.30;;;;;;;-128.00;-1.00;-1.00;100113;1303;1003110;-28
2022/05/08 00:35:00;;;;;;;7.60;5.60;;;;;;;-128.00;-1.00;-1.00;100109;1303;1003876;-30
2022/05/08 00:37:28;;;;;;;8.00;5.10;;;;;;;-128.00;-1.00;-1.00;100066;1303;1003433;-28
2022/05/08 00:39:57;;;;;;;8.40;6.90;;;;;;;-128.00;-1.00;-1.00;100063;1303;1003158;-28
2022/05/08 00:42:27;;;;;;;11.90;6.80;;;;;;;-128.00;-1.00;-1.00;100144;1303;1004118;-25
2022/05/08 00:44:56;;;;;;;8.10;5.70;;;;;;;-128.00;-1.00;-1.00;100068;1303;1003729;-25
2022/05/08 00:47:25;;;;;;;10.90;5.80;;;;;;;-128.00;-1.00;-1.00;100080;1303;1005136;-28
2022/05/08 00:49:54;;;;;;;14.40;6.40;;;;;;;-128.00;-1.00;-1.00;100133;1303;1003920;-28
2022/05/08 00:52:23;;;;;;;8.60;6.30;;;;;;;-128.00;-1.00;-1.00;100078;1303;1003965;-24
2022/05/08 00:54:52;;;;;;;6.60;5.30;;;;;;;-128.00;-1.00;-1.00;100069;1303;1004483;-27
2022/05/08 00:57:21;;;;;;;8.90;5.80;;;;;;;-128.00;-1.00;-1.00;100093;1303;1003835;-25
2022/05/08 00:59:50;;;;;;;8.80;7.20;;;;;;;-128.00;-1.00;-1.00;100147;1303;1004154;-25
2022/05/08 01:02:19;;;;;;;9.50;6.20;;;;;;;-128.00;-1.00;-1.00;100117;1303;1004025;-23
2022/05/08 01:04:48;;;;;;;6.40;4.80;;;;;;;-128.00;-1.00;-1.00;100031;1303;1004294;-28
2022/05/08 01:07:17;;;;;;;9.40;6.60;;;;;;;-128.00;-1.00;-1.00;100033;1303;1004333;-26
2022/05/08 01:09:46;;;;;;;7.10;5.80;;;;;;;-128.00;-1.00;-1.00;99866;1304;1003392;-25
2022/05/08 01:12:15;;;;;;;9.80;6.00;;;;;;;-128.00;-1.00;-1.00;100187;1303;1003493;-28
2022/05/08 01:14:44;;;;;;;7.70;6.50;;;;;;;-128.00;-1.00;-1.00;100117;1303;1004415;-27
2022/05/08 01:17:14;;;;;;;11.20;6.50;;;;;;;-128.00;-1.00;-1.00;100006;1303;1003747;-24
2022/05/08 01:19:43;;;;;;;6.60;5.00;;;;;;;-128.00;-1.00;-1.00;100051;1303;1003950;-24
2022/05/08 01:22:12;;;;;;;8.60;6.30;;;;;;;-128.00;-1.00;-1.00;100099;1303;1002879;-30
2022/05/08 01:24:41;;;;;;;8.80;6.10;;;;;;;-128.00;-1.00;-1.00;100009;1303;1003204;-24
2022/05/08 01:27:10;;;;;;;6.70;6.00;;;;;;;-128.00;-1.00;-1.00;100119;1302;1002995;-30
2022/05/08 01:29:39;;;;;;;10.50;6.50;;;;;;;-128.00;-1.00;-1.00;100159;1303;1003661;-24
2022/05/08 01:32:08;;;;;;;10.30;7.40;;;;;;;-128.00;-1.00;-1.00;100022;1303;1003426;-29
2022/05/08 01:34:37;;;;;;;8.20;7.30;;;;;;;-128.00;-1.00;-1.00;100060;1303;1004064;-28
2022/05/08 01:37:05;;;;;;;7.30;5.80;;;;;;;-128.00;-1.00;-1.00;100075;1303;1003488;-28
2022/05/08 01:39:34;;;;;;;9.90;6.60;;;;;;;-128.00;-1.00;-1.00;100043;1303;1003931;-25
2022/05/08 01:42:06;;;;;;;10.90;7.90;;;;;;;-128.00;-1.00;-1.00;100087;1303;1003610;-28
2022/05/08 01:44:35;;;;;;;10.70;6.50;;;;;;;-128.00;-1.00;-1.00;100041;1303;1003222;-25
2022/05/08 01:49:37;;;;;;;10.60;6.50;;;;;;;-128.00;-1.00;-1.00;100059;1303;1003924;-28
2022/05/08 01:52:07;;;;;;;11.50;6.30;;;;;;;-128.00;-1.00;-1.00;100088;1303;1003941;-23
2022/05/08 01:54:36;;;;;;;9.80;6.90;;;;;;;-128.00;-1.00;-1.00;100084;1303;1003653;-30
2022/05/08 01:57:05;;;;;;;7.40;6.60;;;;;;;-128.00;-1.00;-1.00;100100;1303;1003700;-24
2022/05/08 01:59:34;;;;;;;12.10;7.90;;;;;;;-128.00;-1.00;-1.00;100095;1303;1003919;-30
2022/05/08 02:02:04;;;;;;;10.20;7.40;;;;;;;-128.00;-1.00;-1.00;100137;1303;1004343;-30
2022/05/08 02:04:33;;;;;;;8.70;6.40;;;;;;;-128.00;-1.00;-1.00;100112;1303;1003953;-30
2022/05/08 02:07:02;;;;;;;7.60;5.30;;;;;;;-128.00;-1.00;-1.00;100159;1303;1003442;-28
2022/05/08 02:09:31;;;;;;;7.00;5.70;;;;;;;-128.00;-1.00;-1.00;100075;1303;1004012;-28
2022/05/08 02:11:59;;;;;;;7.10;5.60;;;;;;;-128.00;-1.00;-1.00;100054;1303;1003509;-28
2022/05/08 02:14:28;;;;;;;10.60;7.00;;;;;;;-128.00;-1.00;-1.00;99907;1303;1003898;-30
2022/05/08 02:16:57;;;;;;;12.60;7.00;;;;;;;-128.00;-1.00;-1.00;100087;1303;1003711;-28
2022/05/08 02:19:26;;;;;;;13.60;7.60;;;;;;;-128.00;-1.00;-1.00;100052;1303;1003547;-28
2022/05/08 02:21:55;;;;;;;8.60;7.50;;;;;;;-128.00;-1.00;-1.00;100087;1303;1004041;-24
2022/05/08 02:24:24;;;;;;;14.10;8.50;;;;;;;-128.00;-1.00;-1.00;100087;1303;1003644;-30
2022/05/08 02:26:53;;;;;;;11.10;8.70;;;;;;;-128.00;-1.00;-1.00;100120;1303;1003381;-28
2022/05/08 02:29:22;;;;;;;21.90;8.20;;;;;;;-128.00;-1.00;-1.00;100127;1303;1004187;-24
2022/05/08 02:31:51;;;;;;;10.50;7.90;;;;;;;-128.00;-1.00;-1.00;100059;1303;1003098;-28
2022/05/08 02:34:20;;;;;;;10.60;8.90;;;;;;;-128.00;-1.00;-1.00;100009;1303;1004168;-25
2022/05/08 02:36:49;;;;;;;8.70;7.20;;;;;;;-128.00;-1.00;-1.00;100140;1303;1003945;-28
2022/05/08 02:39:18;;;;;;;9.70;7.60;;;;;;;-128.00;-1.00;-1.00;100097;1303;1003495;-25
2022/05/08 02:41:47;;;;;;;12.20;7.40;;;;;;;-128.00;-1.00;-1.00;100013;1303;1004694;-28
2022/05/08 02:44:16;;;;;;;11.50;8.30;;;;;;;-128.00;-1.00;-1.00;99950;1303;1003571;-28
2022/05/08 02:46:45;;;;;;;12.30;8.10;;;;;;;-128.00;-1.00;-1.00;100089;1303;1003938;-28
2022/05/08 02:49:14;;;;;;;10.60;8.10;;;;;;;-128.00;-1.00;-1.00;100079;1303;1003850;-25
2022/05/08 02:51:43;;;;;;;10.50;8.30;;;;;;;-128.00;-1.00;-1.00;100107;1302;1003715;-29
2022/05/08 02:54:12;;;;;;;13.90;8.60;;;;;;;-128.00;-1.00;-1.00;100079;1303;1003298;-24
2022/05/08 02:59:15;;;;;;;14.10;7.90;;;;;;;-128.00;-1.00;-1.00;100116;1303;1002986;-28
2022/05/08 03:01:44;;;;;;;17.00;8.50;;;;;;;-128.00;-1.00;-1.00;100103;1303;1004380;-26
2022/05/08 03:04:13;;;;;;;10.20;7.40;;;;;;;-128.00;-1.00;-1.00;100052;1303;1003697;-27
2022/05/08 03:06:42;;;;;;;7.80;6.30;;;;;;;-128.00;-1.00;-1.00;100044;1303;1003090;-24
2022/05/08 03:09:11;;;;;;;10.20;7.90;;;;;;;-128.00;-1.00;-1.00;100152;1302;1003821;-24
2022/05/08 03:11:40;;;;;;;9.20;6.70;;;;;;;-128.00;-1.00;-1.00;100096;1303;1003488;-25
2022/05/08 03:14:09;;;;;;;11.50;7.60;;;;;;;-128.00;-1.00;-1.00;100109;1303;1003551;-25
2022/05/08 03:16:40;;;;;;;8.50;7.10;;;;;;;-128.00;-1.00;-1.00;100093;1303;1004153;-28
2022/05/08 03:19:09;;;;;;;10.10;7.30;;;;;;;-128.00;-1.00;-1.00;100060;1303;1003482;-24
2022/05/08 03:21:38;;;;;;;5.70;3.60;;;;;;;-128.00;-1.00;-1.00;100107;1303;1003785;-24
2022/05/08 03:24:08;;;;;;;7.10;5.30;;;;;;;-128.00;-1.00;-1.00;100113;1303;1003571;-28
2022/05/08 03:26:37;;;;;;;4.40;3.70;;;;;;;-128.00;-1.00;-1.00;100089;1303;1003440;-24
2022/05/08 03:29:07;;;;;;;5.60;4.60;;;;;;;-128.00;-1.00;-1.00;100103;1303;1003909;-28
2022/05/08 03:31:37;;;;;;;4.30;3.70;;;;;;;-128.00;-1.00;-1.00;100087;1303;1003602;-28
2022/05/08 03:34:06;;;;;;;7.80;6.20;;;;;;;-128.00;-1.00;-1.00;100035;1303;1003152;-28
2022/05/08 03:36:35;;;;;;;11.00;6.00;;;;;;;-128.00;-1.00;-1.00;100106;1303;1004763;-28
2022/05/08 03:39:04;;;;;;;5.70;5.10;;;;;;;-128.00;-1.00;-1.00;100184;1303;1004304;-28
2022/05/08 03:41:33;;;;;;;12.70;6.70;;;;;;;-128.00;-1.00;-1.00;100045;1303;1003351;-28
2022/05/08 03:44:02;;;;;;;9.60;6.40;;;;;;;-128.00;-1.00;-1.00;100120;1303;1003426;-28
2022/05/08 03:46:31;;;;;;;8.80;7.50;;;;;;;-128.00;-1.00;-1.00;100099;1303;1004437;-29
2022/05/08 03:49:01;;;;;;;13.20;7.50;;;;;;;-128.00;-1.00;-1.00;100101;1303;1003583;-25
2022/05/08 03:51:30;;;;;;;10.30;6.90;;;;;;;-128.00;-1.00;-1.00;100122;1303;1002914;-25
2022/05/08 03:53:59;;;;;;;8.90;6.70;;;;;;;-128.00;-1.00;-1.00;100130;1303;1002950;-27
2022/05/08 03:56:28;;;;;;;10.30;7.60;;;;;;;-128.00;-1.00;-1.00;100090;1303;1003854;-27
2022/05/08 03:58:57;;;;;;;10.10;7.10;;;;;;;-128.00;-1.00;-1.00;100105;1303;1003486;-23
2022/05/08 04:01:26;;;;;;;10.30;7.60;;;;;;;-128.00;-1.00;-1.00;100080;1303;1004393;-27
2022/05/08 04:03:55;;;;;;;14.20;7.50;;;;;;;-128.00;-1.00;-1.00;100131;1303;1003457;-24
2022/05/08 04:06:25;;;;;;;9.60;6.30;;;;;;;-128.00;-1.00;-1.00;100134;1303;1004283;-28
2022/05/08 04:08:53;;;;;;;7.30;6.40;;;;;;;-128.00;-1.00;-1.00;100076;1303;1003502;-24
2022/05/08 04:11:22;;;;;;;8.30;5.80;;;;;;;-128.00;-1.00;-1.00;100167;1303;1003094;-24
2022/05/08 04:13:51;;;;;;;6.10;5.20;;;;;;;-128.00;-1.00;-1.00;100107;1302;1003608;-24
2022/05/08 04:16:21;;;;;;;9.20;5.50;;;;;;;-128.00;-1.00;-1.00;99861;1303;1003853;-29
2022/05/08 04:18:51;;;;;;;8.20;5.40;;;;;;;-128.00;-1.00;-1.00;100124;1303;1003125;-25
2022/05/08 04:21:20;;;;;;;8.40;6.80;;;;;;;-128.00;-1.00;-1.00;100139;1303;1004076;-25
2022/05/08 04:26:21;;;;;;;9.60;7.00;;;;;;;-128.00;-1.00;-1.00;100117;1303;1002842;-25
2022/05/08 04:28:50;;;;;;;7.40;6.10;;;;;;;-128.00;-1.00;-1.00;100136;1303;1002802;-28
2022/05/08 04:31:19;;;;;;;8.90;6.40;;;;;;;-128.00;-1.00;-1.00;100056;1303;1003632;-27
2022/05/08 04:33:48;;;;;;;9.80;6.80;;;;;;;-128.00;-1.00;-1.00;100093;1303;1003451;-28
2022/05/08 04:36:18;;;;;;;12.40;7.60;;;;;;;-128.00;-1.00;-1.00;100136;1303;1003592;-30
2022/05/08 04:38:47;;;;;;;7.90;6.60;;;;;;;-128.00;-1.00;-1.00;100119;1303;1003862;-28
2022/05/08 04:41:17;;;;;;;7.20;6.50;;;;;;;-128.00;-1.00;-1.00;100116;1303;1003524;-27
2022/05/08 04:43:47;;;;;;;10.60;9.40;;;;;;;-128.00;-1.00;-1.00;100111;1302;1003772;-24
2022/05/08 04:46:15;;;;;;;11.50;8.40;;;;;;;-128.00;-1.00;-1.00;100054;1301;1004533;-27
2022/05/08 04:48:44;;;;;;;12.30;8.20;;;;;;;-128.00;-1.00;-1.00;100110;1303;1004296;-23
2022/05/08 04:51:13;;;;;;;11.20;7.70;;;;;;;-128.00;-1.00;-1.00;100088;1303;1003872;-24
2022/05/08 04:53:42;;;;;;;10.80;7.10;;;;;;;-128.00;-1.00;-1.00;100093;1303;1002893;-27
2022/05/08 04:56:12;;;;;;;11.20;8.80;;;;;;;-128.00;-1.00;-1.00;100096;1303;1003479;-30
2022/05/08 04:58:41;;;;;;;11.90;9.10;;;;;;;-128.00;-1.00;-1.00;100097;1303;1003439;-26
2022/05/08 05:01:10;;;;;;;8.40;7.30;;;;;;;-128.00;-1.00;-1.00;100076;1303;1004306;-29
2022/05/08 05:03:41;;;;;;;14.90;8.50;;;;;;;-128.00;-1.00;-1.00;100043;1303;1003240;-29
2022/05/08 05:06:10;;;;;;;11.70;7.50;;;;;;;-128.00;-1.00;-1.00;100096;1303;1002989;-26
2022/05/08 05:08:39;;;;;;;9.60;8.10;;;;;;;-128.00;-1.00;-1.00;100104;1303;1003680;-28
2022/05/08 05:11:09;;;;;;;20.00;9.40;;;;;;;-128.00;-1.00;-1.00;100061;1303;1002974;-29
2022/05/08 05:13:38;;;;;;;12.20;7.40;;;;;;;-128.00;-1.00;-1.00;100098;1303;1003052;-24
2022/05/08 05:16:07;;;;;;;9.60;7.80;;;;;;;-128.00;-1.00;-1.00;100044;1303;1003387;-28
2022/05/08 05:18:36;;;;;;;10.10;7.10;;;;;;;-128.00;-1.00;-1.00;100076;1303;1003633;-28
2022/05/08 05:21:05;;;;;;;14.70;9.30;;;;;;;-128.00;-1.00;-1.00;100096;1303;1004220;-27
2022/05/08 05:23:35;;;;;;;16.70;7.10;;;;;;;-128.00;-1.00;-1.00;100116;1303;1003940;-24
2022/05/08 05:26:04;;;;;;;8.40;7.40;;;;;;;-128.00;-1.00;-1.00;99996;1303;1003741;-28
2022/05/08 05:28:33;;;;;;;9.30;7.30;;;;;;;-128.00;-1.00;-1.00;100054;1303;1003053;-25
2022/05/08 05:31:02;;;;;;;19.00;9.00;;;;;;;-128.00;-1.00;-1.00;100069;1303;1003967;-25
2022/05/08 05:33:31;;;;;;;9.50;7.60;;;;;;;-128.00;-1.00;-1.00;100080;1303;1003482;-30
2022/05/08 05:36:00;;;;;;;14.00;7.70;;;;;;;-128.00;-1.00;-1.00;100091;1303;1003877;-24
2022/05/08 05:38:29;;;;;;;7.20;6.30;;;;;;;-128.00;-1.00;-1.00;100079;1303;1004679;-29
2022/05/08 05:40:58;;;;;;;12.50;7.40;;;;;;;-128.00;-1.00;-1.00;100126;1303;1003533;-28
2022/05/08 05:43:27;;;;;;;9.10;5.90;;;;;;;-128.00;-1.00;-1.00;100156;1303;1003950;-25
2022/05/08 05:48:28;;;;;;;13.70;6.80;;;;;;;-128.00;-1.00;-1.00;100104;1303;1003637;-25
2022/05/08 05:50:57;;;;;;;10.70;7.90;;;;;;;-128.00;-1.00;-1.00;100112;1303;1003077;-25
2022/05/08 05:53:26;;;;;;;9.10;7.80;;;;;;;-128.00;-1.00;-1.00;100092;1303;1003730;-28
2022/05/08 05:55:57;;;;;;;11.60;8.00;;;;;;;-128.00;-1.00;-1.00;100125;1303;1003602;-28
2022/05/08 05:58:27;;;;;;;11.50;6.80;;;;;;;-128.00;-1.00;-1.00;100077;1303;1003214;-25
2022/05/08 06:00:55;;;;;;;9.30;6.10;;;;;;;-128.00;-1.00;-1.00;99965;1303;1004555;-25
2022/05/08 06:03:24;;;;;;;6.90;6.20;;;;;;;-128.00;-1.00;-1.00;100160;1303;1003652;-25
2022/05/08 06:05:54;;;;;;;8.00;5.60;;;;;;;-128.00;-1.00;-1.00;100241;1300;1005111;-24
2022/05/08 06:08:23;;;;;;;16.10;6.90;;;;;;;-128.00;-1.00;-1.00;100231;1300;1003326;-25
2022/05/08 06:10:52;;;;;;;10.00;6.40;;;;;;;-128.00;-1.00;-1.00;100267;1300;1004016;-29
2022/05/08 06:13:21;;;;;;;7.00;6.30;;;;;;;-128.00;-1.00;-1.00;100305;1300;1003651;-29
2022/05/08 06:15:50;;;;;;;7.60;5.90;;;;;;;-128.00;-1.00;-1.00;100232;1300;1003832;-28
2022/05/08 06:18:19;;;;;;;8.40;6.30;;;;;;;-128.00;-1.00;-1.00;100305;1300;1004099;-25
2022/05/08 06:20:48;;;;;;;8.90;6.80;;;;;;;-128.00;-1.00;-1.00;100256;1300;1004763;-29
2022/05/08 06:23:17;;;;;;;6.30;5.60;;;;;;;-128.00;-1.00;-1.00;100315;1300;1003739;-30
2022/05/08 06:25:46;;;;;;;7.60;5.60;;;;;;;-128.00;-1.00;-1.00;100280;1300;1004568;-29
2022/05/08 06:28:19;;;;;;;7.00;5.00;;;;;;;-128.00;-1.00;-1.00;100305;1300;1004084;-29
2022/05/08 06:30:48;;;;;;;8.50;5.50;;;;;;;-128.00;-1.00;-1.00;100163;1300;1004469;-25
2022/05/08 06:33:18;;;;;;;5.50;4.90;;;;;;;-128.00;-1.00;-1.00;100259;1300;1003723;-28
2022/05/08 06:35:48;;;;;;;12.60;5.00;;;;;;;-128.00;-1.00;-1.00;100092;1300;1004614;-28
2022/05/08 06:38:17;;;;;;;5.80;5.10;;;;;;;-128.00;-1.00;-1.00;100332;1300;1004021;-25
2022/05/08 06:40:46;;;;;;;5.70;4.70;;;;;;;-128.00;-1.00;-1.00;100336;1300;1003767;-26
2022/05/08 06:43:14;;;;;;;10.00;4.60;;;;;;;-128.00;-1.00;-1.00;100247;1300;1003452;-29
2022/05/08 06:45:43;;;;;;;6.70;3.80;;;;;;;-128.00;-1.00;-1.00;100275;1300;1003527;-25
2022/05/08 06:48:12;;;;;;;4.40;4.00;;;;;;;-128.00;-1.00;-1.00;100293;1300;1003308;-27
2022/05/08 06:50:43;;;;;;;4.50;4.10;;;;;;;-128.00;-1.00;-1.00;100292;1300;1003600;-24
2022/05/08 06:53:12;;;;;;;6.90;3.60;;;;;;;-128.00;-1.00;-1.00;100268;1300;1004036;-27
2022/05/08 06:55:43;;;;;;;8.10;4.20;;;;;;;-128.00;-1.00;-1.00;100072;1300;1004560;-27
2022/05/08 06:58:12;;;;;;;4.10;3.00;;;;;;;-128.00;-1.00;-1.00;100275;1300;1003511;-29
2022/05/08 07:03:14;;;;;;;4.60;3.30;;;;;;;-128.00;-1.00;-1.00;100281;1300;1003659;-28
2022/05/08 07:05:45;;;;;;;5.00;3.50;;;;;;;-128.00;-1.00;-1.00;100291;1300;1003098;-28
2022/05/08 07:08:14;;;;;;;7.30;4.10;;;;;;;-128.00;-1.00;-1.00;100177;1300;1003814;-26
2022/05/08 07:10:43;;;;;;;5.20;4.40;;;;;;;-128.00;-1.00;-1.00;100273;1300;1003577;-29
2022/05/08 07:13:12;;;;;;;6.30;3.30;;;;;;;-128.00;-1.00;-1.00;100276;1300;1005338;-25
2022/05/08 07:15:42;;;;;;;5.60;4.70;;;;;;;-128.00;-1.00;-1.00;100281;1300;1003222;-29
2022/05/08 07:18:10;;;;;;;5.60;4.70;;;;;;;-128.00;-1.00;-1.00;100272;1300;1003520;-29
2022/05/08 07:20:39;;;;;;;5.10;3.60;;;;;;;-128.00;-1.00;-1.00;100275;1300;1003524;-29
2022/05/08 07:23:08;;;;;;;6.20;3.90;;;;;;;-128.00;-1.00;-1.00;100271;1300;1003796;-29
2022/05/08 07:25:38;;;;;;;5.40;4.00;;;;;;;-128.00;-1.00;-1.00;100200;1300;1003647;-25
2022/05/08 07:28:07;;;;;;;7.00;4.00;;;;;;;-128.00;-1.00;-1.00;100263;1300;1004798;-25
2022/05/08 07:30:36;;;;;;;4.40;3.60;;;;;;;-128.00;-1.00;-1.00;100300;1300;1003893;-28
2022/05/08 07:33:05;;;;;;;7.00;3.30;;;;;;;-128.00;-1.00;-1.00;100238;1300;1003893;-25
2022/05/08 07:38:06;;;;;;;4.00;2.50;;;;;;;-128.00;-1.00;-1.00;100260;1300;1003478;-25
2022/05/08 07:40:35;;;;;;;2.90;2.50;;;;;;;-128.00;-1.00;-1.00;100307;1300;1003261;-29
2022/05/08 07:43:04;;;;;;;3.40;2.90;;;;;;;-128.00;-1.00;-1.00;100249;1300;1003690;-24
2022/05/08 07:45:33;;;;;;;4.50;3.10;;;;;;;-128.00;-1.00;-1.00;100293;1300;1003826;-25
2022/05/08 07:48:02;;;;;;;3.90;2.30;;;;;;;-128.00;-1.00;-1.00;100192;1300;1002919;-28
2022/05/08 07:50:31;;;;;;;3.50;3.00;;;;;;;-128.00;-1.00;-1.00;100223;1300;1004350;-25
2022/05/08 07:53:01;;;;;;;5.00;2.10;;;;;;;-128.00;-1.00;-1.00;100334;1300;1003210;-28
2022/05/08 07:55:31;;;;;;;3.50;2.60;;;;;;;-128.00;-1.00;-1.00;100309;1300;1003949;-28
2022/05/08 07:58:00;;;;;;;4.00;2.20;;;;;;;-128.00;-1.00;-1.00;100232;1300;1004960;-25
2022/05/08 08:00:29;;;;;;;3.50;2.00;;;;;;;-128.00;-1.00;-1.00;100271;1300;1004209;-24
2022/05/08 08:02:58;;;;;;;2.20;1.80;;;;;;;-128.00;-1.00;-1.00;100228;1300;1002947;-28
2022/05/08 08:05:27;;;;;;;3.00;2.50;;;;;;;-128.00;-1.00;-1.00;100267;1300;1003803;-29
2022/05/08 08:07:56;;;;;;;4.10;2.50;;;;;;;-128.00;-1.00;-1.00;100277;1300;1004100;-28
2022/05/08 08:10:25;;;;;;;15.50;3.50;;;;;;;-128.00;-1.00;-1.00;100297;1300;1004156;-25
2022/05/08 08:12:54;;;;;;;2.50;2.00;;;;;;;-128.00;-1.00;-1.00;100303;1300;1003522;-24
2022/05/08 08:15:23;;;;;;;4.40;1.80;;;;;;;-128.00;-1.00;-1.00;100249;1300;1003841;-28
2022/05/08 08:17:52;;;;;;;2.40;1.50;;;;;;;-128.00;-1.00;-1.00;100266;1300;1004494;-24
2022/05/08 08:20:21;;;;;;;3.20;2.00;;;;;;;-128.00;-1.00;-1.00;100149;1300;1003629;-24
2022/05/08 08:22:50;;;;;;;2.70;2.10;;;;;;;-128.00;-1.00;-1.00;100291;1300;1004211;-28
2022/05/08 08:25:20;;;;;;;9.20;2.50;;;;;;;-128.00;-1.00;-1.00;100246;1300;1004001;-25
2022/05/08 08:27:49;;;;;;;2.70;1.80;;;;;;;-128.00;-1.00;-1.00;100256;1300;1002985;-25
2022/05/08 08:30:18;;;;;;;2.10;1.70;;;;;;;-128.00;-1.00;-1.00;100311;1300;1004094;-28
2022/05/08 08:32:47;;;;;;;1.70;1.00;;;;;;;-128.00;-1.00;-1.00;100303;1300;1003726;-28
2022/05/08 08:35:16;;;;;;;1.10;1.00;;;;;;;-128.00;-1.00;-1.00;100224;1300;1003698;-24
2022/05/08 08:37:45;;;;;;;2.50;1.30;;;;;;;-128.00;-1.00;-1.00;100318;1300;1002937;-28
2022/05/08 08:40:14;;;;;;;2.20;1.60;;;;;;;-128.00;-1.00;-1.00;100249;1300;1003367;-28
2022/05/08 08:42:43;;;;;;;2.30;1.80;;;;;;;-128.00;-1.00;-1.00;100135;1300;1003097;-24
2022/05/08 08:47:52;;;;;;;2.80;1.00;;;;;;;-128.00;-1.00;-1.00;100237;1300;1004411;-28
2022/05/08 08:50:26;;;;;;;2.20;1.30;;;;;;;-128.00;-1.00;-1.00;100268;1300;1004037;-28
2022/05/08 08:52:57;;;;;;;2.60;1.50;;;;;;;-128.00;-1.00;-1.00;100259;1300;1003747;-28
2022/05/08 08:55:26;;;;;;;2.40;1.50;;;;;;;-128.00;-1.00;-1.00;100247;1300;1004481;-24
2022/05/08 08:57:55;;;;;;;6.80;1.80;;;;;;;-128.00;-1.00;-1.00;100281;1300;1003657;-28
2022/05/08 09:00:24;;;;;;;2.60;1.30;;;;;;;-128.00;-1.00;-1.00;100300;1300;1003379;-28
2022/05/08 09:02:55;;;;;;;1.80;1.10;;;;;;;-128.00;-1.00;-1.00;100041;1300;1004186;-24
2022/05/08 09:05:25;;;;;;;1.30;1.10;;;;;;;-128.00;-1.00;-1.00;100238;1300;1003613;-28
2022/05/08 09:07:54;;;;;;;1.60;1.00;;;;;;;-128.00;-1.00;-1.00;100285;1300;1003708;-28
2022/05/08 09:10:26;;;;;;;4.10;2.00;;;;;;;-128.00;-1.00;-1.00;100280;1300;1004390;-24
2022/05/08 09:12:58;;;;;;;1.00;0.70;;;;;;;-128.00;-1.00;-1.00;100278;1300;1003350;-28
2022/05/08 09:15:29;;;;;;;2.10;0.90;;;;;;;-128.00;-1.00;-1.00;100263;1300;1003049;-28
2022/05/08 09:17:59;;;;;;;1.40;0.90;;;;;;;-128.00;-1.00;-1.00;100321;1300;1004069;-24
2022/05/08 09:20:39;;;;;;;1.70;0.90;;;;;;;-128.00;-1.00;-1.00;100228;1300;1004517;-28
2022/05/08 09:23:10;;;;;;;3.00;1.20;;;;;;;-128.00;-1.00;-1.00;100226;1300;1003454;-28
2022/05/08 09:25:43;;;;;;;1.80;1.40;;;;;;;-128.00;-1.00;-1.00;100285;1300;1003846;-28
2022/05/08 09:28:15;;;;;;;1.20;0.90;;;;;;;-128.00;-1.00;-1.00;100255;1300;1003252;-28
2022/05/08 09:30:51;;;;;;;1.30;0.50;;;;;;;-128.00;-1.00;-1.00;100252;1300;1003411;-28
2022/05/08 09:33:22;;;;;;;3.50;1.30;;;;;;;-128.00;-1.00;-1.00;100245;1300;1003664;-28
2022/05/08 09:35:51;;;;;;;0.90;0.60;;;;;;;-128.00;-1.00;-1.00;100126;1300;1003028;-24
2022/05/08 09:38:21;;;;;;;2.40;1.00;;;;;;;-128.00;-1.00;-1.00;100331;1300;1004390;-25
2022/05/08 09:40:57;;;;;;;3.30;1.40;;;;;;;-128.00;-1.00;-1.00;100329;1300;1003662;-28
2022/05/08 09:43:28;;;;;;;3.00;1.20;;;;;;;-128.00;-1.00;-1.00;100191;1300;1003162;-28
2022/05/08 09:45:58;;;;;;;2.60;0.80;;;;;;;-128.00;-1.00;-1.00;100321;1300;1003688;-24
2022/05/08 09:48:28;;;;;;;1.20;0.80;;;;;;;-128.00;-1.00;-1.00;100342;1300;1003134;-25
2022/05/08 09:50:58;;;;;;;1.20;0.70;;;;;;;-128.00;-1.00;-1.00;100283;1300;1004046;-28
2022/05/08 09:53:28;;;;;;;2.80;0.80;;;;;;;-128.00;-1.00;-1.00;100309;1300;1003234;-24
2022/05/08 09:55:59;;;;;;;4.00;0.70;;;;;;;-128.00;-1.00;-1.00;100269;1300;1003303;-24
2022/05/08 09:58:28;;;;;;;1.10;0.70;;;;;;;-128.00;-1.00;-1.00;100228;1300;1003316;-24
2022/05/08 10:00:57;;;;;;;0.70;0.50;;;;;;;-128.00;-1.00;-1.00;100322;1300;1003320;-28
2022/05/08 10:03:27;;;;;;;1.50;0.80;;;;;;;-128.00;-1.00;-1.00;100290;1300;1003355;-28
2022/05/08 10:05:59;;;;;;;2.10;0.80;;;;;;;-128.00;-1.00;-1.00;100256;1300;1003752;-30
2022/05/08 10:08:33;;;;;;;0.40;0.40;;;;;;;-128.00;-1.00;-1.00;100155;1300;1003076;-25
2022/05/08 10:16:21;;;;;;;4.10;0.80;;;;;;;-128.00;-1.00;-1.00;100235;1299;1003663;-29
2022/05/08 10:18:50;;;;;;;3.00;0.70;;;;;;;-128.00;-1.00;-1.00;100318;1300;1004051;-27
2022/05/08 10:21:19;;;;;;;1.00;0.60;;;;;;;-128.00;-1.00;-1.00;100246;1300;1003527;-28
2022/05/08 10:23:50;;;;;;;1.30;0.70;;;;;;;-128.00;-1.00;-1.00;100214;1300;1002918;-28
2022/05/08 10:26:20;;;;;;;2.60;0.70;;;;;;;-128.00;-1.00;-1.00;100254;1300;1004049;-28
2022/05/08 10:29:11;;;;;;;6.80;0.80;;;;;;;-128.00;-1.00;-1.00;100281;1300;1004711;-28
2022/05/08 10:31:43;;;;;;;2.80;1.00;;;;;;;-128.00;-1.00;-1.00;100272;1300;1003705;-28
2022/05/08 10:34:13;;;;;;;1.40;1.00;;;;;;;-128.00;-1.00;-1.00;100246;1300;1003944;-25
2022/05/08 10:37:05;;;;;;;3.40;0.90;;;;;;;-128.00;-1.00;-1.00;100310;1300;1003741;-28
2022/05/08 10:39:37;;;;;;;2.80;1.00;;;;;;;-128.00;-1.00;-1.00;100321;1300;1002665;-28
2022/05/08 10:42:06;;;;;;;0.90;0.70;;;;;;;-128.00;-1.00;-1.00;100339;1299;1003518;-24
2022/05/08 10:44:37;;;;;;;0.80;0.70;;;;;;;-128.00;-1.00;-1.00;100342;1300;1003609;-28
2022/05/08 10:47:21;;;;;;;2.90;0.70;;;;;;;-128.00;-1.00;-1.00;100150;1300;1003418;-28
2022/05/08 10:49:59;;;;;;;2.80;0.70;;;;;;;-128.00;-1.00;-1.00;100331;1300;1002967;-24
2022/05/08 10:52:40;;;;;;;0.90;0.60;;;;;;;-128.00;-1.00;-1.00;100314;1300;1003773;-24
2022/05/08 10:55:18;;;;;;;5.00;1.00;;;;;;;-128.00;-1.00;-1.00;100276;1300;1003012;-28
2022/05/08 10:57:55;;;;;;;1.60;0.70;;;;;;;-128.00;-1.00;-1.00;100285;1300;1003579;-24
2022/05/08 11:00:33;;;;;;;1.20;0.60;;;;;;;-128.00;-1.00;-1.00;100279;1300;1003161;-30
2022/05/08 11:03:02;;;;;;;3.30;0.60;;;;;;;-128.00;-1.00;-1.00;100258;1300;1002953;-27
2022/05/08 11:05:34;;;;;;;0.90;0.60;;;;;;;-128.00;-1.00;-1.00;100277;1300;1003428;-24
2022/05/08 11:08:05;;;;;;;2.90;1.00;;;;;;;-128.00;-1.00;-1.00;100251;1300;1003640;-24
2022/05/08 11:10:37;;;;;;;1.10;0.60;;;;;;;-128.00;-1.00;-1.00;100279;1300;1003614;-24
2022/05/08 11:13:06;;;;;;;0.70;0.60;;;;;;;-128.00;-1.00;-1.00;100280;1300;1002932;-29
2022/05/08 11:15:37;;;;;;;2.10;0.90;;;;;;;-128.00;-1.00;-1.00;100313;1300;1003140;-28
2022/05/08 11:18:07;;;;;;;2.10;0.90;;;;;;;-128.00;-1.00;-1.00;100092;1301;1003820;-28
2022/05/08 11:20:37;;;;;;;1.90;0.80;;;;;;;-128.00;-1.00;-1.00;100216;1300;1004748;-28
2022/05/08 11:23:06;;;;;;;2.50;0.90;;;;;;;-128.00;-1.00;-1.00;100283;1300;1003837;-28
2022/05/08 11:25:35;;;;;;;1.70;0.90;;;;;;;-128.00;-1.00;-1.00;100304;1300;1003789;-24
2022/05/08 11:28:04;;;;;;;1.00;0.70;;;;;;;-128.00;-1.00;-1.00;100270;1299;1004681;-28
2022/05/08 11:30:35;;;;;;;1.20;0.50;;;;;;;-128.00;-1.00;-1.00;100285;1300;1002678;-24
2022/05/08 11:38:11;;;;;;;1.40;0.80;;;;;;;-128.00;-1.00;-1.00;100327;1299;1003885;-28
2022/05/08 11:40:40;;;;;;;3.60;1.30;;;;;;;-128.00;-1.00;-1.00;100346;1300;1003808;-24
2022/05/08 11:43:09;;;;;;;1.70;0.90;;;;;;;-128.00;-1.00;-1.00;100358;1300;1003298;-28
2022/05/08 11:45:38;;;;;;;1.90;0.90;;;;;;;-128.00;-1.00;-1.00;100357;1300;1003122;-23
2022/05/08 11:48:07;;;;;;;5.90;1.30;;;;;;;-128.00;-1.00;-1.00;100320;1300;1003332;-28
2022/05/08 11:50:36;;;;;;;2.10;0.80;;;;;;;-128.00;-1.00;-1.00;100305;1300;1003147;-28
2022/05/08 11:53:14;;;;;;;1.10;0.60;;;;;;;-128.00;-1.00;-1.00;100320;1299;1003462;-24